createdAt,value
2018-05-12T00:01:54.567Z,100542.48
2018-05-12T00:04:25.528Z,100533.19
2018-05-12T00:06:56.645Z,100537.63
2018-05-12T00:09:27.534Z,100532.80
2018-05-12T00:11:58.615Z,100533.19
2018-05-12T00:14:29.596Z,100531.52
2018-05-12T00:17:00.462Z,100530.70
2018-05-12T00:19:31.333Z,100530.05
2018-05-12T00:22:02.873Z,100533.77
2018-05-12T00:24:33.569Z,100535.69
2018-05-12T00:27:04.781Z,100533.38
2018-05-12T00:29:35.541Z,100537.48
2018-05-12T00:32:06.351Z,100532.30
2018-05-12T00:34:37.022Z,100541.33
2018-05-12T00:37:07.774Z,100539.66
2018-05-12T00:39:38.503Z,100543.19
2018-05-12T00:42:09.647Z,100540.09
2018-05-12T00:44:40.487Z,100543.61
2018-05-12T00:47:11.548Z,100532.39
2018-05-12T00:49:42.146Z,100534.97
2018-05-12T00:52:12.986Z,100537.64
2018-05-12T00:54:43.650Z,100528.97
2018-05-12T00:57:14.580Z,100538.00
2018-05-12T00:59:45.090Z,100535.00
2018-05-12T01:02:15.876Z,100531.09
2018-05-12T01:04:46.554Z,100531.28
2018-05-12T01:07:17.682Z,100540.89
2018-05-12T01:09:48.578Z,100540.14
2018-05-12T01:12:19.686Z,100528.11
2018-05-12T01:14:50.151Z,100528.54
2018-05-12T01:17:20.995Z,100533.95
2018-05-12T01:19:51.685Z,100528.80
2018-05-12T01:22:22.673Z,100528.80
2018-05-12T01:24:53.565Z,100530.30
2018-05-12T01:27:24.178Z,100533.39
2018-05-12T01:29:54.088Z,100532.05
2018-05-12T01:32:24.965Z,100533.48
2018-05-12T01:34:55.574Z,100523.80
2018-05-12T01:37:26.558Z,100527.16
2018-05-12T01:39:57.543Z,100527.84
2018-05-12T01:42:28.210Z,100526.66
2018-05-12T01:44:58.914Z,100518.94
2018-05-12T01:47:29.682Z,100521.77
2018-05-12T01:50:00.647Z,100525.71
2018-05-12T01:52:31.582Z,100521.14
2018-05-12T01:55:02.230Z,100523.00
2018-05-12T01:57:33.011Z,100527.73
2018-05-12T02:00:03.725Z,100530.33
2018-05-12T02:02:34.652Z,100530.73
2018-05-12T02:05:05.655Z,100529.00
2018-05-12T02:07:36.189Z,100531.73
2018-05-12T02:10:06.174Z,100525.15
2018-05-12T02:12:36.862Z,100526.39
2018-05-12T02:15:07.550Z,100521.56
2018-05-12T02:17:38.651Z,100519.64
2018-05-12T02:20:09.547Z,100523.66
2018-05-12T02:22:40.219Z,100522.31
2018-05-12T02:25:10.862Z,100524.56
2018-05-12T02:27:41.670Z,100521.38
2018-05-12T02:30:12.576Z,100522.31
2018-05-12T02:32:43.604Z,100512.12
2018-05-12T02:35:13.834Z,100521.89
2018-05-12T02:37:44.720Z,100523.81
2018-05-12T02:40:15.563Z,100519.24
2018-05-12T02:42:46.202Z,100522.66
2018-05-12T02:45:16.914Z,100516.98
2018-05-12T02:47:46.938Z,100516.23
2018-05-12T02:50:17.674Z,100521.34
2018-05-12T02:52:48.579Z,100523.27
2018-05-12T02:55:19.546Z,100527.05
2018-05-12T02:57:50.650Z,100523.62
2018-05-12T03:00:21.555Z,100527.30
2018-05-12T03:02:52.178Z,100525.81
2018-05-12T03:05:22.994Z,100525.60
2018-05-12T03:07:53.051Z,100520.86
2018-05-12T03:10:23.766Z,100517.09
2018-05-12T03:12:54.662Z,100519.55
2018-05-12T03:15:25.633Z,100514.11
2018-05-12T03:17:56.678Z,100503.33
2018-05-12T03:20:27.537Z,100530.28
2018-05-12T03:22:58.665Z,100526.68
2018-05-12T03:25:29.514Z,100531.77
2018-05-12T03:28:00.587Z,100529.76
2018-05-12T03:30:31.489Z,100526.31
2018-05-12T03:33:02.634Z,100530.65
2018-05-12T03:35:33.598Z,100531.41
2018-05-12T03:38:04.590Z,100533.78
2018-05-12T03:40:35.571Z,100534.05
2018-05-12T03:43:06.570Z,100499.36
2018-05-12T03:45:37.594Z,100547.39
2018-05-12T03:48:08.566Z,100554.30
2018-05-12T03:50:39.533Z,100551.47
2018-05-12T03:53:10.643Z,100545.95
2018-05-12T03:55:41.102Z,100549.54
2018-05-12T03:58:11.894Z,100541.95
2018-05-12T04:00:42.654Z,100540.19
2018-05-12T04:03:13.218Z,100542.44
2018-05-12T04:05:55.124Z,100541.95
2018-05-12T04:08:34.964Z,100544.95
2018-05-12T04:11:15.219Z,100543.97
2018-05-12T04:13:44.178Z,100542.37
2018-05-12T04:16:13.354Z,100543.20
2018-05-12T04:18:42.354Z,100549.78
2018-05-12T04:21:11.290Z,100551.64
2018-05-12T04:23:40.230Z,100543.95
2018-05-12T04:26:09.293Z,100547.38
2018-05-12T04:28:38.233Z,100549.37
2018-05-12T04:31:07.178Z,100542.92
2018-05-12T04:33:36.742Z,100541.06
2018-05-12T04:36:05.694Z,100546.83
2018-05-12T04:38:34.634Z,100546.67
2018-05-12T04:41:03.670Z,100551.33
2018-05-12T04:43:32.611Z,100552.05
2018-05-12T04:46:01.571Z,100560.57
2018-05-12T04:48:30.985Z,100555.78
2018-05-12T04:50:59.950Z,100563.31
2018-05-12T04:53:30.785Z,100563.14
2018-05-12T04:56:01.658Z,100559.66
2018-05-12T04:58:32.573Z,100554.98
2018-05-12T05:01:03.546Z,100554.38
2018-05-12T05:03:34.675Z,100557.47
2018-05-12T05:06:05.610Z,100559.98
2018-05-12T05:08:36.653Z,100556.23
2018-05-12T05:11:07.562Z,100549.16
2018-05-12T05:13:38.666Z,100560.68
2018-05-12T05:16:09.538Z,100554.04
2018-05-12T05:18:40.198Z,100556.85
2018-05-12T05:21:11.049Z,100558.32
2018-05-12T05:23:41.955Z,100562.56
2018-05-12T05:26:12.644Z,100562.02
2018-05-12T05:28:43.569Z,100560.84
2018-05-12T05:31:14.278Z,100560.48
2018-05-12T05:33:45.017Z,100561.59
2018-05-12T05:36:15.760Z,100557.33
2018-05-12T05:38:46.679Z,100558.47
2018-05-12T05:41:17.605Z,100559.73
2018-05-12T05:43:48.579Z,100564.27
2018-05-12T05:46:19.487Z,100559.01
2018-05-12T05:48:50.602Z,100562.50
2018-05-12T05:51:21.606Z,100561.71
2018-05-12T05:53:52.704Z,100560.96
2018-05-12T05:56:23.110Z,100567.26
2018-05-12T05:58:53.893Z,100569.39
2018-05-12T06:01:25.826Z,100568.98
2018-05-12T06:03:56.263Z,100562.62
2018-05-12T06:06:26.762Z,100557.59
2018-05-12T06:08:57.220Z,100563.20
2018-05-12T06:11:27.975Z,100569.81
2018-05-12T06:13:58.953Z,100558.02
2018-05-12T06:16:29.712Z,100561.74
2018-05-12T06:19:01.555Z,100566.69
2018-05-12T06:21:31.163Z,100566.58
2018-05-12T06:24:01.974Z,100562.28
2018-05-12T06:26:32.741Z,100558.39
2018-05-12T06:29:03.719Z,100558.67
2018-05-12T06:31:36.984Z,100564.03
2018-05-12T06:34:06.072Z,100556.55
2018-05-12T06:36:36.830Z,100564.95
2018-05-12T06:39:07.635Z,100557.73
2018-05-12T06:41:39.019Z,100559.83
2018-05-12T06:44:09.839Z,100559.67
2018-05-12T06:46:40.640Z,100562.10
2018-05-12T06:49:11.771Z,100561.37
2018-05-12T06:51:42.562Z,100555.89
2018-05-12T06:54:13.653Z,100551.49
2018-05-12T06:56:44.610Z,100557.05
2018-05-12T06:59:16.246Z,100554.38
2018-05-12T07:01:48.720Z,100556.09
2018-05-12T07:04:17.878Z,100554.78
2018-05-12T07:06:47.927Z,100558.59
2018-05-12T07:09:18.762Z,100558.13
2018-05-12T07:11:53.330Z,100561.26
2018-05-12T07:14:22.431Z,100553.02
2018-05-12T07:16:51.399Z,100548.81
2018-05-12T07:19:22.322Z,100549.81
2018-05-12T07:21:52.106Z,100545.78
2018-05-12T07:24:22.893Z,100550.55
2018-05-12T07:26:54.163Z,100544.53
2018-05-12T07:29:24.974Z,100550.70
2018-05-12T07:31:55.733Z,100548.68
2018-05-12T07:34:26.281Z,100545.23
2018-05-12T07:36:58.079Z,100545.20
2018-05-12T07:39:34.397Z,100545.12
2018-05-12T07:42:08.277Z,100546.03
2018-05-12T07:44:37.305Z,100535.51
2018-05-12T07:47:06.302Z,100537.63
2018-05-12T07:49:35.251Z,100538.08
2018-05-12T07:52:05.809Z,100535.64
2018-05-12T07:54:34.853Z,100538.07
2018-05-12T07:57:03.879Z,100527.94
2018-05-12T07:59:34.087Z,100525.54
2018-05-12T08:02:04.821Z,100527.63
2018-05-12T08:04:35.623Z,100529.29
2018-05-12T08:07:06.646Z,100524.95
2018-05-12T08:09:37.619Z,100519.88
2018-05-12T08:12:09.182Z,100520.89
2018-05-12T08:14:39.943Z,100523.06
2018-05-12T08:17:10.648Z,100526.89
2018-05-12T08:19:41.680Z,100523.67
2018-05-12T08:22:12.545Z,100523.25
2018-05-12T08:24:43.657Z,100521.14
2018-05-12T08:27:14.554Z,100518.56
2018-05-12T08:29:45.748Z,100514.35
2018-05-12T08:32:16.591Z,100516.92
2018-05-12T08:34:47.573Z,100514.85
2018-05-12T08:37:18.608Z,100509.16
2018-05-12T08:39:49.651Z,100509.48
2018-05-12T08:42:20.602Z,100509.44
2018-05-12T08:44:51.588Z,100506.36
2018-05-12T08:47:22.599Z,100506.88
2018-05-12T08:49:53.611Z,100505.20
2018-05-12T08:52:24.543Z,100506.62
2018-05-12T08:54:55.668Z,100503.03
2018-05-12T08:57:26.508Z,100503.88
2018-05-12T08:59:57.564Z,100494.36
2018-05-12T09:02:28.551Z,100492.13
2018-05-12T09:04:59.646Z,100489.75
2018-05-12T09:07:30.156Z,100492.56
2018-05-12T09:10:00.898Z,100484.58
2018-05-12T09:12:31.570Z,100483.47
2018-05-12T09:15:02.579Z,100487.30
2018-05-12T09:17:33.670Z,100487.67
2018-05-12T09:20:04.277Z,100481.00
2018-05-12T09:22:35.827Z,100477.80
2018-05-12T09:25:06.655Z,100477.00
2018-05-12T09:27:37.192Z,100477.50
2018-05-12T09:30:08.027Z,100480.13
2018-05-12T09:32:38.869Z,100484.98
2018-05-12T09:35:09.834Z,100473.90
2018-05-12T09:37:40.535Z,100479.02
2018-05-12T09:40:12.430Z,100475.13
2018-05-12T09:42:43.214Z,100471.84
2018-05-12T09:45:13.949Z,100477.47
2018-05-12T09:47:44.714Z,100469.59
2018-05-12T09:50:15.567Z,100467.11
2018-05-12T09:52:46.611Z,100466.11
2018-05-12T09:55:16.642Z,100465.84
2018-05-12T09:57:47.274Z,100469.56
2018-05-12T10:00:18.006Z,100468.50
2018-05-12T10:02:49.120Z,100468.52
2018-05-12T10:05:20.205Z,100467.73
2018-05-12T10:07:51.107Z,100458.68
2018-05-12T10:10:22.214Z,100450.02
2018-05-12T10:12:53.268Z,100450.91
2018-05-12T10:15:24.296Z,100451.92
2018-05-12T10:18:01.234Z,100448.60
2018-05-12T10:20:30.345Z,100450.50
2018-05-12T10:22:59.895Z,100448.40
2018-05-12T10:25:28.810Z,100449.58
2018-05-12T10:27:59.794Z,100443.21
2018-05-12T10:30:30.604Z,100446.34
2018-05-12T10:33:01.611Z,100443.76
2018-05-12T10:35:32.352Z,100439.44
2018-05-12T10:38:04.007Z,100426.75
2018-05-12T10:40:34.031Z,100435.19
2018-05-12T10:43:04.868Z,100432.08
2018-05-12T10:45:35.668Z,100427.72
2018-05-12T10:48:06.823Z,100423.64
2018-05-12T10:50:37.613Z,100428.73
2018-05-12T10:53:08.747Z,100421.40
2018-05-12T10:55:39.634Z,100425.97
2018-05-12T10:58:10.769Z,100420.47
2018-05-12T11:00:41.613Z,100418.55
2018-05-12T11:03:12.704Z,100412.55
2018-05-12T11:05:43.587Z,100412.14
2018-05-12T11:08:14.274Z,100411.53
2018-05-12T11:10:44.821Z,100408.31
2018-05-12T11:13:15.719Z,100406.14
2018-05-12T11:15:46.234Z,100406.29
2018-05-12T11:18:16.998Z,100394.65
2018-05-12T11:20:47.019Z,100390.15
2018-05-12T11:23:17.880Z,100392.59
2018-05-12T11:25:48.948Z,100393.42
2018-05-12T11:28:19.767Z,100392.02
2018-05-12T11:30:50.838Z,100396.95
2018-05-12T11:33:22.582Z,100391.77
2018-05-12T11:35:53.266Z,100386.73
2018-05-12T11:38:27.529Z,100384.70
2018-05-12T11:40:57.086Z,100384.88
2018-05-12T11:43:26.055Z,100378.31
2018-05-12T11:45:56.090Z,100378.46
2018-05-12T11:48:26.948Z,100380.86
2018-05-12T11:50:57.688Z,100371.13
2018-05-12T11:53:28.659Z,100373.34
2018-05-12T11:55:59.205Z,100364.62
2018-05-12T11:58:30.030Z,100359.11
2018-05-12T12:01:00.949Z,100364.61
2018-05-12T12:03:31.819Z,100365.27
2018-05-12T12:06:02.598Z,100357.97
2018-05-12T12:08:33.155Z,100349.00
2018-05-12T12:11:03.932Z,100350.07
2018-05-12T12:13:34.724Z,100343.94
2018-05-12T12:16:05.725Z,100331.30
2018-05-12T12:18:36.654Z,100344.70
2018-05-12T12:21:07.725Z,100346.48
2018-05-12T12:23:38.755Z,100341.42
2018-05-12T12:26:09.793Z,100332.94
2018-05-12T12:28:40.568Z,100334.80
2018-05-12T12:31:12.381Z,100330.98
2018-05-12T12:33:43.151Z,100323.30
2018-05-12T12:36:13.229Z,100320.73
2018-05-12T12:38:44.019Z,100309.11
2018-05-12T12:41:14.706Z,100305.03
2018-05-12T12:43:45.579Z,100299.56
2018-05-12T12:46:16.607Z,100297.93
2018-05-12T12:48:47.615Z,100299.56
2018-05-12T12:51:18.678Z,100296.45
2018-05-12T12:53:49.575Z,100297.10
2018-05-12T12:56:20.188Z,100298.63
2018-05-12T12:58:50.947Z,100287.58
2018-05-12T13:01:21.031Z,100287.16
2018-05-12T13:03:51.941Z,100289.44
2018-05-12T13:06:22.668Z,100285.29
2018-05-12T13:08:53.595Z,100292.44
2018-05-12T13:11:24.870Z,100283.52
2018-05-12T13:13:55.956Z,100287.36
2018-05-12T13:16:26.146Z,100282.84
2018-05-12T13:18:56.961Z,100283.11
2018-05-12T13:21:27.694Z,100274.59
2018-05-12T13:23:58.609Z,100266.00
2018-05-12T13:26:29.609Z,100260.02
2018-05-12T13:29:00.617Z,100254.59
2018-05-12T13:31:31.319Z,100247.67
2018-05-12T13:34:02.114Z,100247.30
2018-05-12T13:36:32.830Z,100240.44
2018-05-12T13:39:03.446Z,100233.87
2018-05-12T13:41:34.562Z,100233.45
2018-05-12T13:44:05.541Z,100233.63
2018-05-12T13:46:36.568Z,100240.91
2018-05-12T13:49:07.618Z,100234.50
2018-05-12T13:51:38.502Z,100234.67
2018-05-12T13:54:09.630Z,100233.31
2018-05-12T13:56:40.531Z,100232.08
2018-05-12T13:59:11.673Z,100234.76
2018-05-12T14:01:42.144Z,100233.34
2018-05-12T14:04:12.965Z,100238.48
2018-05-12T14:06:43.694Z,100239.69
2018-05-12T14:09:14.580Z,100240.53
2018-05-12T14:11:45.524Z,100245.38
2018-05-12T14:14:16.651Z,100245.84
2018-05-12T14:16:47.535Z,100244.22
2018-05-12T14:19:18.627Z,100242.02
2018-05-12T14:21:49.530Z,100245.46
2018-05-12T14:24:20.646Z,100240.13
2018-05-12T14:26:51.609Z,100243.23
2018-05-12T14:29:22.727Z,100245.04
2018-05-12T14:31:53.447Z,100244.36
2018-05-12T14:34:24.153Z,100246.12
2018-05-12T14:36:54.880Z,100242.05
2018-05-12T14:39:25.684Z,100239.70
2018-05-12T14:41:57.078Z,100242.92
2018-05-12T14:44:27.863Z,100236.88
2018-05-12T14:46:58.621Z,100237.92
2018-05-12T14:49:29.702Z,100238.77
2018-05-12T14:52:01.340Z,100237.00
2018-05-12T14:54:31.585Z,100243.36
2018-05-12T14:57:02.558Z,100248.85
2018-05-12T14:59:33.623Z,100250.00
2018-05-12T15:02:04.634Z,100245.29
2018-05-12T15:04:35.677Z,100245.47
2018-05-12T15:07:06.544Z,100245.28
2018-05-12T15:09:37.542Z,100236.83
2018-05-12T15:12:08.545Z,100240.79
2018-05-12T15:14:39.554Z,100235.64
2018-05-12T15:17:10.795Z,100231.64
2018-05-12T15:19:41.654Z,100226.72
2018-05-12T15:22:12.521Z,100228.59
2018-05-12T15:24:43.611Z,100226.13
2018-05-12T15:27:14.468Z,100223.81
2018-05-12T15:29:45.244Z,100229.68
2018-05-12T15:32:15.938Z,100235.40
2018-05-12T15:34:46.799Z,100231.88
2018-05-12T15:37:17.569Z,100240.66
2018-05-12T15:39:48.519Z,100231.05
2018-05-12T15:42:19.578Z,100229.56
2018-05-12T15:44:50.642Z,100223.81
2018-05-12T15:47:21.559Z,100227.16
2018-05-12T15:49:52.593Z,100226.43
2018-05-12T15:52:23.543Z,100241.52
2018-05-12T15:54:54.634Z,100250.03
2018-05-12T15:57:25.711Z,100255.91
2018-05-12T15:59:56.598Z,100234.83
2018-05-12T16:02:27.483Z,100236.25
2018-05-12T16:04:58.687Z,100239.48
2018-05-12T16:07:29.600Z,100242.19
2018-05-12T16:10:00.291Z,100238.62
2018-05-12T16:12:30.886Z,100235.27
2018-05-12T16:15:01.716Z,100237.84
2018-05-12T16:17:32.594Z,100238.66
2018-05-12T16:20:03.645Z,100239.53
2018-05-12T16:22:34.180Z,100235.33
2018-05-12T16:25:04.998Z,100238.46
2018-05-12T16:27:35.729Z,100235.69
2018-05-12T16:30:06.950Z,100225.72
2018-05-12T16:32:36.953Z,100230.73
2018-05-12T16:35:07.847Z,100235.09
2018-05-12T16:37:37.958Z,100243.06
2018-05-12T16:40:08.773Z,100236.06
2018-05-12T16:42:39.615Z,100237.36
2018-05-12T16:45:10.285Z,100236.66
2018-05-12T16:47:41.918Z,100239.08
2018-05-12T16:50:12.104Z,100239.77
2018-05-12T16:52:42.867Z,100243.84
2018-05-12T16:55:13.713Z,100232.29
2018-05-12T16:57:44.621Z,100237.98
2018-05-12T17:00:15.749Z,100235.11
2018-05-12T17:02:46.535Z,100238.30
2018-05-12T17:05:17.655Z,100236.44
2018-05-12T17:07:48.666Z,100238.09
2018-05-12T17:10:19.627Z,100228.84
2018-05-12T17:12:50.607Z,100227.14
2018-05-12T17:15:21.707Z,100231.62
2018-05-12T17:17:52.614Z,100229.30
2018-05-12T17:20:23.594Z,100231.16
2018-05-12T17:22:54.544Z,100234.29
2018-05-12T17:25:25.662Z,100232.27
2018-05-12T17:27:56.668Z,100223.86
2018-05-12T17:30:27.712Z,100225.73
2018-05-12T17:32:58.547Z,100216.50
2018-05-12T17:35:29.682Z,100219.76
2018-05-12T17:38:00.558Z,100217.30
2018-05-12T17:40:31.646Z,100223.81
2018-05-12T17:43:02.631Z,100219.76
2018-05-12T17:45:33.731Z,100222.29
2018-05-12T17:48:04.405Z,100221.82
2018-05-12T17:50:35.583Z,100213.92
2018-05-12T17:53:06.647Z,100213.87
2018-05-12T17:55:37.633Z,100212.84
2018-05-12T17:58:07.951Z,100213.06
2018-05-12T18:00:38.805Z,100213.02
2018-05-12T18:03:10.613Z,100212.33
2018-05-12T18:05:41.267Z,100201.09
2018-05-12T18:08:11.958Z,100200.16
2018-05-12T18:10:42.751Z,100199.86
2018-05-12T18:13:13.581Z,100201.67
2018-05-12T18:15:44.592Z,100198.53
2018-05-12T18:18:15.582Z,100197.38
2018-05-12T18:20:46.629Z,100195.59
2018-05-12T18:23:17.637Z,100198.74
2018-05-12T18:25:48.861Z,100194.67
2018-05-12T18:28:19.698Z,100199.30
2018-05-12T18:30:50.562Z,100197.68
2018-05-12T18:33:21.796Z,100204.91
2018-05-12T18:35:52.764Z,100212.39
2018-05-12T18:38:23.372Z,100214.03
2018-05-12T18:40:54.105Z,100215.49
2018-05-12T18:43:24.919Z,100212.03
2018-05-12T18:45:55.667Z,100211.79
2018-05-12T18:48:26.703Z,100219.56
2018-05-12T18:50:57.521Z,100218.03
2018-05-12T18:53:28.581Z,100227.37
2018-05-12T18:55:59.537Z,100226.02
2018-05-12T18:58:31.383Z,100220.86
2018-05-12T19:01:02.159Z,100224.50
2018-05-12T19:03:33.058Z,100228.64
2018-05-12T19:06:03.797Z,100232.95
2018-05-12T19:08:34.658Z,100239.00
2018-05-12T19:11:05.686Z,100237.27
2018-05-12T19:13:36.794Z,100234.53
2018-05-12T19:16:07.786Z,100239.91
2018-05-12T19:18:38.736Z,100220.92
2018-05-12T19:21:09.227Z,100235.36
2018-05-12T19:23:43.050Z,100230.87
2018-05-12T19:26:13.855Z,100232.47
2018-05-12T19:28:42.908Z,100236.73
2018-05-12T19:31:16.818Z,100229.13
2018-05-12T19:33:45.845Z,100230.19
2018-05-12T19:36:15.069Z,100231.99
2018-05-12T19:38:55.248Z,100229.11
2018-05-12T19:41:24.467Z,100235.30
2018-05-12T19:43:53.584Z,100235.12
2018-05-12T19:46:22.786Z,100233.41
2018-05-12T19:48:51.824Z,100241.25
2018-05-12T19:51:20.854Z,100235.12
2018-05-12T19:53:51.639Z,100231.17
2018-05-12T19:56:22.228Z,100230.85
2018-05-12T19:58:53.096Z,100230.13
2018-05-12T20:01:23.992Z,100229.89
2018-05-12T20:03:54.835Z,100235.82
2018-05-12T20:06:25.060Z,100230.13
2018-05-12T20:08:55.836Z,100232.52
2018-05-12T20:11:26.643Z,100234.67
2018-05-12T20:13:57.147Z,100230.33
2018-05-12T20:16:27.987Z,100231.67
2018-05-12T20:18:58.015Z,100231.30
2018-05-12T20:21:28.874Z,100231.62
2018-05-12T20:23:59.639Z,100228.86
2018-05-12T20:26:30.881Z,100228.27
2018-05-12T20:29:01.806Z,100225.29
2018-05-12T20:31:33.512Z,100226.15
2018-05-12T20:34:04.271Z,100229.05
2018-05-12T20:36:35.053Z,100225.44
2018-05-12T20:39:04.657Z,100226.09
2018-05-12T20:41:35.954Z,100225.88
2018-05-12T20:44:08.316Z,100223.11
2018-05-12T20:46:39.212Z,100222.82
2018-05-12T20:49:09.952Z,100217.63
2018-05-12T20:51:40.232Z,100216.60
2018-05-12T20:54:11.238Z,100211.84
2018-05-12T20:56:42.339Z,100210.20
2018-05-12T20:59:13.022Z,100208.19
2018-05-12T21:01:45.347Z,100211.73
2018-05-12T21:04:15.434Z,100216.09
2018-05-12T21:06:46.836Z,100209.37
2018-05-12T21:09:16.877Z,100216.42
2018-05-12T21:11:47.875Z,100213.34
2018-05-12T21:14:18.732Z,100213.55
2018-05-12T21:16:49.815Z,100205.89
2018-05-12T21:19:20.555Z,100203.75
2018-05-12T21:21:51.625Z,100195.67
2018-05-12T21:24:23.798Z,100193.61
2018-05-12T21:26:59.467Z,100191.40
2018-05-12T21:29:29.021Z,100189.56
2018-05-12T21:31:58.028Z,100195.39
2018-05-12T21:34:27.062Z,100189.19
2018-05-12T21:36:57.026Z,100190.55
2018-05-12T21:39:28.359Z,100197.58
2018-05-12T21:41:59.002Z,100195.70
2018-05-12T21:44:29.200Z,100206.88
2018-05-12T21:46:59.897Z,100207.42
2018-05-12T21:49:30.795Z,100202.77
2018-05-12T21:52:01.554Z,100203.08
2018-05-12T21:54:33.129Z,100205.36
2018-05-12T21:57:04.007Z,100201.24
2018-05-12T21:59:38.609Z,100198.98
2018-05-12T22:02:08.001Z,100198.95
2018-05-12T22:04:37.579Z,100204.64
2018-05-12T22:07:08.308Z,100203.84
2018-05-12T22:13:09.371Z,100199.65
2018-05-12T22:15:38.425Z,100196.95
2018-05-12T22:18:07.406Z,100198.53
2018-05-12T22:20:36.391Z,100203.72
2018-05-12T22:23:05.476Z,100199.80
2018-05-12T22:25:34.460Z,100205.16
2018-05-12T22:28:03.425Z,100209.73
2018-05-12T22:30:32.505Z,100205.92
2018-05-12T22:33:01.720Z,100212.95
2018-05-12T22:35:31.008Z,100211.20
2018-05-12T22:38:00.251Z,100215.50
2018-05-12T22:40:35.978Z,100211.79
2018-05-12T22:43:05.251Z,100212.19
2018-05-12T22:45:34.394Z,100209.70
2018-05-12T22:48:03.322Z,100212.80
2018-05-12T22:50:33.056Z,100216.10
2018-05-12T22:53:02.098Z,100216.94
2018-05-12T22:55:31.183Z,100217.97
2018-05-12T22:58:00.591Z,100216.94
2018-05-12T23:00:32.585Z,100209.90
2018-05-12T23:03:01.634Z,100212.69
2018-05-12T23:05:30.588Z,100213.63
2018-05-12T23:07:59.568Z,100213.61
2018-05-12T23:10:28.582Z,100204.02
2018-05-12T23:12:57.842Z,100208.45
2018-05-12T23:15:27.209Z,100213.47
2018-05-12T23:17:56.222Z,100217.21
2018-05-12T23:20:25.241Z,100213.80
2018-05-12T23:22:54.215Z,100213.34
2018-05-12T23:25:23.307Z,100216.59
2018-05-12T23:27:52.383Z,100212.91
2018-05-12T23:30:21.339Z,100219.00
2018-05-12T23:32:50.771Z,100224.80
2018-05-12T23:35:19.750Z,100220.36
2018-05-12T23:37:48.711Z,100223.44
2018-05-12T23:40:17.751Z,100228.14
2018-05-12T23:42:46.763Z,100221.62
2018-05-12T23:45:15.727Z,100224.02
2018-05-12T23:47:45.080Z,100233.71
2018-05-12T23:50:14.124Z,100232.08
2018-05-12T23:52:44.823Z,100235.61
2018-05-12T23:55:15.765Z,100230.14
2018-05-12T23:57:46.494Z,100234.48
